sensor_id;sensor_type;location;lat;lon;timestamp;P1;durP1;ratioP1;P2;durP2;ratioP2
73382;SDS011;61600;48.126;11.542;2023-07-08T00:01:44;11.13;;;6.38;;
73382;SDS011;61600;48.126;11.542;2023-07-08T00:04:10;9.75;;;5.25;;
73382;SDS011;61600;48.126;11.542;2023-07-08T00:06:36;10.68;;;5.82;;
73382;SDS011;61600;48.126;11.542;2023-07-08T00:09:02;10.52;;;5.03;;
73382;SDS011;61600;48.126;11.542;2023-07-08T00:11:28;10.88;;;5.25;;
73382;SDS011;61600;48.126;11.542;2023-07-08T00:13:54;9.05;;;5.05;;
73382;SDS011;61600;48.126;11.542;2023-07-08T00:16:20;10.48;;;5.75;;
73382;SDS011;61600;48.126;11.542;2023-07-08T00:18:46;14.00;;;5.38;;
73382;SDS011;61600;48.126;11.542;2023-07-08T00:21:12;11.93;;;5.50;;
73382;SDS011;61600;48.126;11.542;2023-07-08T00:23:49;13.15;;;5.97;;
73382;SDS011;61600;48.126;11.542;2023-07-08T00:26:21;10.38;;;5.85;;
73382;SDS011;61600;48.126;11.542;2023-07-08T00:28:49;12.85;;;6.07;;
73382;SDS011;61600;48.126;11.542;2023-07-08T00:31:15;10.48;;;5.63;;
73382;SDS011;61600;48.126;11.542;2023-07-08T00:33:45;12.50;;;5.05;;
73382;SDS011;61600;48.126;11.542;2023-07-08T00:36:14;13.10;;;5.57;;
73382;SDS011;61600;48.126;11.542;2023-07-08T00:38:42;9.88;;;5.80;;
73382;SDS011;61600;48.126;11.542;2023-07-08T00:43:56;10.15;;;5.07;;
73382;SDS011;61600;48.126;11.542;2023-07-08T00:49:21;10.93;;;5.30;;
73382;SDS011;61600;48.126;11.542;2023-07-08T00:51:46;13.52;;;5.90;;
73382;SDS011;61600;48.126;11.542;2023-07-08T00:54:12;11.27;;;5.20;;
73382;SDS011;61600;48.126;11.542;2023-07-08T00:56:59;11.38;;;5.50;;
73382;SDS011;61600;48.126;11.542;2023-07-08T01:02:14;12.38;;;5.60;;
73382;SDS011;61600;48.126;11.542;2023-07-08T01:09:47;14.10;;;5.90;;
73382;SDS011;61600;48.126;11.542;2023-07-08T01:12:19;11.60;;;5.53;;
73382;SDS011;61600;48.126;11.542;2023-07-08T01:14:48;12.05;;;5.03;;
73382;SDS011;61600;48.126;11.542;2023-07-08T01:17:19;9.73;;;5.60;;
73382;SDS011;61600;48.126;11.542;2023-07-08T01:19:47;11.13;;;5.10;;
73382;SDS011;61600;48.126;11.542;2023-07-08T01:22:14;10.48;;;5.07;;
73382;SDS011;61600;48.126;11.542;2023-07-08T01:24:40;9.35;;;5.38;;
73382;SDS011;61600;48.126;11.542;2023-07-08T01:27:09;14.07;;;5.65;;
73382;SDS011;61600;48.126;11.542;2023-07-08T01:29:37;11.68;;;6.43;;
73382;SDS011;61600;48.126;11.542;2023-07-08T01:32:03;11.85;;;5.32;;
73382;SDS011;61600;48.126;11.542;2023-07-08T01:34:31;11.02;;;5.45;;
73382;SDS011;61600;48.126;11.542;2023-07-08T01:36:58;10.98;;;5.50;;
73382;SDS011;61600;48.126;11.542;2023-07-08T01:39:27;10.20;;;5.35;;
73382;SDS011;61600;48.126;11.542;2023-07-08T01:41:55;13.38;;;5.55;;
73382;SDS011;61600;48.126;11.542;2023-07-08T01:46:50;10.27;;;5.75;;
73382;SDS011;61600;48.126;11.542;2023-07-08T01:49:17;15.70;;;6.35;;
73382;SDS011;61600;48.126;11.542;2023-07-08T01:51:44;12.93;;;5.75;;
73382;SDS011;61600;48.126;11.542;2023-07-08T01:54:11;10.82;;;5.72;;
73382;SDS011;61600;48.126;11.542;2023-07-08T01:56:37;10.00;;;5.65;;
73382;SDS011;61600;48.126;11.542;2023-07-08T01:59:02;12.38;;;6.57;;
73382;SDS011;61600;48.126;11.542;2023-07-08T02:01:28;12.30;;;6.07;;
73382;SDS011;61600;48.126;11.542;2023-07-08T02:03:54;11.68;;;5.80;;
73382;SDS011;61600;48.126;11.542;2023-07-08T02:06:19;10.82;;;6.05;;
73382;SDS011;61600;48.126;11.542;2023-07-08T02:08:45;12.45;;;6.57;;
73382;SDS011;61600;48.126;11.542;2023-07-08T02:11:11;11.63;;;5.93;;
73382;SDS011;61600;48.126;11.542;2023-07-08T02:13:36;10.27;;;5.75;;
73382;SDS011;61600;48.126;11.542;2023-07-08T02:16:02;11.63;;;5.22;;
73382;SDS011;61600;48.126;11.542;2023-07-08T02:18:28;9.07;;;5.05;;
73382;SDS011;61600;48.126;11.542;2023-07-08T02:20:57;12.90;;;6.05;;
73382;SDS011;61600;48.126;11.542;2023-07-08T02:23:24;11.35;;;5.50;;
73382;SDS011;61600;48.126;11.542;2023-07-08T02:25:51;14.85;;;6.03;;
73382;SDS011;61600;48.126;11.542;2023-07-08T02:28:17;11.40;;;5.90;;
73382;SDS011;61600;48.126;11.542;2023-07-08T02:30:43;11.30;;;5.65;;
73382;SDS011;61600;48.126;11.542;2023-07-08T02:33:11;12.30;;;5.88;;
73382;SDS011;61600;48.126;11.542;2023-07-08T02:35:38;12.57;;;6.05;;
73382;SDS011;61600;48.126;11.542;2023-07-08T02:38:03;11.38;;;5.28;;
73382;SDS011;61600;48.126;11.542;2023-07-08T02:40:29;14.88;;;5.75;;
73382;SDS011;61600;48.126;11.542;2023-07-08T02:42:55;10.80;;;5.88;;
73382;SDS011;61600;48.126;11.542;2023-07-08T02:45:21;10.60;;;5.63;;
73382;SDS011;61600;48.126;11.542;2023-07-08T02:47:46;10.95;;;5.55;;
73382;SDS011;61600;48.126;11.542;2023-07-08T02:50:12;10.70;;;5.80;;
73382;SDS011;61600;48.126;11.542;2023-07-08T02:52:38;10.80;;;5.75;;
73382;SDS011;61600;48.126;11.542;2023-07-08T02:55:04;11.70;;;6.00;;
73382;SDS011;61600;48.126;11.542;2023-07-08T02:57:30;11.55;;;5.65;;
73382;SDS011;61600;48.126;11.542;2023-07-08T02:59:56;10.88;;;5.78;;
73382;SDS011;61600;48.126;11.542;2023-07-08T03:02:21;14.68;;;6.03;;
73382;SDS011;61600;48.126;11.542;2023-07-08T03:04:48;10.75;;;5.63;;
73382;SDS011;61600;48.126;11.542;2023-07-08T03:07:15;10.63;;;5.35;;
73382;SDS011;61600;48.126;11.542;2023-07-08T03:09:41;14.02;;;6.10;;
73382;SDS011;61600;48.126;11.542;2023-07-08T03:12:09;11.57;;;5.35;;
73382;SDS011;61600;48.126;11.542;2023-07-08T03:14:36;10.77;;;5.90;;
73382;SDS011;61600;48.126;11.542;2023-07-08T03:17:02;11.93;;;5.82;;
73382;SDS011;61600;48.126;11.542;2023-07-08T03:19:28;10.40;;;5.45;;
73382;SDS011;61600;48.126;11.542;2023-07-08T03:21:54;11.48;;;5.63;;
73382;SDS011;61600;48.126;11.542;2023-07-08T03:24:20;9.98;;;5.28;;
73382;SDS011;61600;48.126;11.542;2023-07-08T03:26:46;12.35;;;5.75;;
73382;SDS011;61600;48.126;11.542;2023-07-08T03:29:15;12.27;;;5.85;;
73382;SDS011;61600;48.126;11.542;2023-07-08T03:31:42;11.50;;;5.38;;
73382;SDS011;61600;48.126;11.542;2023-07-08T03:34:12;10.40;;;5.28;;
73382;SDS011;61600;48.126;11.542;2023-07-08T03:36:46;10.82;;;5.38;;
73382;SDS011;61600;48.126;11.542;2023-07-08T03:39:16;9.50;;;5.00;;
73382;SDS011;61600;48.126;11.542;2023-07-08T03:41:47;10.48;;;4.90;;
73382;SDS011;61600;48.126;11.542;2023-07-08T03:44:14;9.43;;;5.22;;
73382;SDS011;61600;48.126;11.542;2023-07-08T03:46:43;9.32;;;4.97;;
73382;SDS011;61600;48.126;11.542;2023-07-08T03:49:10;9.95;;;5.18;;
73382;SDS011;61600;48.126;11.542;2023-07-08T03:51:36;12.18;;;5.25;;
73382;SDS011;61600;48.126;11.542;2023-07-08T03:54:05;10.63;;;5.22;;
73382;SDS011;61600;48.126;11.542;2023-07-08T03:56:31;16.50;;;5.50;;
73382;SDS011;61600;48.126;11.542;2023-07-08T03:58:57;11.73;;;5.15;;
73382;SDS011;61600;48.126;11.542;2023-07-08T04:01:24;10.45;;;5.03;;
73382;SDS011;61600;48.126;11.542;2023-07-08T04:03:51;10.35;;;5.03;;
73382;SDS011;61600;48.126;11.542;2023-07-08T04:06:18;11.35;;;5.85;;
73382;SDS011;61600;48.126;11.542;2023-07-08T04:08:44;12.38;;;6.15;;
73382;SDS011;61600;48.126;11.542;2023-07-08T04:11:13;11.63;;;5.90;;
73382;SDS011;61600;48.126;11.542;2023-07-08T04:13:41;13.15;;;6.60;;
73382;SDS011;61600;48.126;11.542;2023-07-08T04:16:07;12.27;;;5.80;;
73382;SDS011;61600;48.126;11.542;2023-07-08T04:18:33;12.07;;;6.55;;
73382;SDS011;61600;48.126;11.542;2023-07-08T04:21:01;15.18;;;7.22;;
73382;SDS011;61600;48.126;11.542;2023-07-08T04:23:27;15.25;;;6.93;;
73382;SDS011;61600;48.126;11.542;2023-07-08T04:25:54;13.77;;;6.18;;
73382;SDS011;61600;48.126;11.542;2023-07-08T04:28:22;12.38;;;6.03;;
73382;SDS011;61600;48.126;11.542;2023-07-08T04:30:47;11.27;;;5.40;;
73382;SDS011;61600;48.126;11.542;2023-07-08T04:33:14;11.85;;;5.38;;
73382;SDS011;61600;48.126;11.542;2023-07-08T04:35:41;12.45;;;5.85;;
73382;SDS011;61600;48.126;11.542;2023-07-08T04:38:14;14.05;;;7.00;;
73382;SDS011;61600;48.126;11.542;2023-07-08T04:40:47;14.02;;;6.72;;
73382;SDS011;61600;48.126;11.542;2023-07-08T04:43:14;12.60;;;6.00;;
73382;SDS011;61600;48.126;11.542;2023-07-08T04:45:40;11.68;;;5.65;;
73382;SDS011;61600;48.126;11.542;2023-07-08T04:48:11;10.45;;;5.10;;
73382;SDS011;61600;48.126;11.542;2023-07-08T04:50:40;11.23;;;5.55;;
73382;SDS011;61600;48.126;11.542;2023-07-08T04:53:06;9.88;;;5.43;;
73382;SDS011;61600;48.126;11.542;2023-07-08T04:55:33;10.38;;;5.43;;
73382;SDS011;61600;48.126;11.542;2023-07-08T04:58:00;9.70;;;5.25;;
73382;SDS011;61600;48.126;11.542;2023-07-08T05:00:27;12.20;;;5.65;;
73382;SDS011;61600;48.126;11.542;2023-07-08T05:02:53;10.45;;;5.25;;
73382;SDS011;61600;48.126;11.542;2023-07-08T05:05:19;11.00;;;4.93;;
73382;SDS011;61600;48.126;11.542;2023-07-08T05:07:46;10.95;;;5.65;;
73382;SDS011;61600;48.126;11.542;2023-07-08T05:10:11;12.18;;;5.72;;
73382;SDS011;61600;48.126;11.542;2023-07-08T05:12:38;13.20;;;5.85;;
73382;SDS011;61600;48.126;11.542;2023-07-08T05:15:03;12.77;;;6.10;;
73382;SDS011;61600;48.126;11.542;2023-07-08T05:17:29;11.23;;;5.65;;
73382;SDS011;61600;48.126;11.542;2023-07-08T05:19:55;11.52;;;5.72;;
73382;SDS011;61600;48.126;11.542;2023-07-08T05:22:23;10.88;;;5.75;;
73382;SDS011;61600;48.126;11.542;2023-07-08T05:24:51;11.85;;;5.57;;
73382;SDS011;61600;48.126;11.542;2023-07-08T05:27:18;9.73;;;5.00;;
73382;SDS011;61600;48.126;11.542;2023-07-08T05:29:45;13.02;;;5.75;;
73382;SDS011;61600;48.126;11.542;2023-07-08T05:32:12;12.57;;;5.88;;
73382;SDS011;61600;48.126;11.542;2023-07-08T05:34:37;11.73;;;5.22;;
73382;SDS011;61600;48.126;11.542;2023-07-08T05:37:03;10.98;;;5.78;;
73382;SDS011;61600;48.126;11.542;2023-07-08T05:39:30;13.15;;;6.22;;
73382;SDS011;61600;48.126;11.542;2023-07-08T05:41:57;11.68;;;5.50;;
73382;SDS011;61600;48.126;11.542;2023-07-08T05:44:23;11.55;;;6.28;;
73382;SDS011;61600;48.126;11.542;2023-07-08T05:46:49;11.27;;;6.05;;
73382;SDS011;61600;48.126;11.542;2023-07-08T05:49:15;10.40;;;5.32;;
73382;SDS011;61600;48.126;11.542;2023-07-08T05:51:42;11.15;;;5.32;;
73382;SDS011;61600;48.126;11.542;2023-07-08T05:54:11;14.73;;;6.18;;
73382;SDS011;61600;48.126;11.542;2023-07-08T05:56:37;11.27;;;5.70;;
73382;SDS011;61600;48.126;11.542;2023-07-08T05:59:03;11.00;;;5.80;;
73382;SDS011;61600;48.126;11.542;2023-07-08T06:01:30;11.52;;;5.80;;
73382;SDS011;61600;48.126;11.542;2023-07-08T06:03:56;9.77;;;5.45;;
73382;SDS011;61600;48.126;11.542;2023-07-08T06:06:25;12.25;;;6.05;;
73382;SDS011;61600;48.126;11.542;2023-07-08T06:08:51;13.25;;;5.85;;
73382;SDS011;61600;48.126;11.542;2023-07-08T06:11:17;11.23;;;5.65;;
73382;SDS011;61600;48.126;11.542;2023-07-08T06:13:44;11.30;;;5.88;;
73382;SDS011;61600;48.126;11.542;2023-07-08T06:16:09;11.63;;;6.00;;
73382;SDS011;61600;48.126;11.542;2023-07-08T06:18:35;12.43;;;5.88;;
73382;SDS011;61600;48.126;11.542;2023-07-08T06:21:01;12.98;;;6.13;;
73382;SDS011;61600;48.126;11.542;2023-07-08T06:23:28;11.15;;;5.63;;
73382;SDS011;61600;48.126;11.542;2023-07-08T06:25:54;10.68;;;5.50;;
73382;SDS011;61600;48.126;11.542;2023-07-08T06:28:20;13.73;;;5.38;;
73382;SDS011;61600;48.126;11.542;2023-07-08T06:30:47;10.57;;;5.38;;
73382;SDS011;61600;48.126;11.542;2023-07-08T06:35:39;10.25;;;5.03;;
73382;SDS011;61600;48.126;11.542;2023-07-08T06:38:05;14.15;;;5.60;;
73382;SDS011;61600;48.126;11.542;2023-07-08T06:42:58;10.63;;;5.53;;
73382;SDS011;61600;48.126;11.542;2023-07-08T06:45:23;10.98;;;5.50;;
73382;SDS011;61600;48.126;11.542;2023-07-08T06:47:49;11.00;;;5.60;;
73382;SDS011;61600;48.126;11.542;2023-07-08T06:50:15;12.30;;;5.88;;
73382;SDS011;61600;48.126;11.542;2023-07-08T06:52:41;11.57;;;6.20;;
73382;SDS011;61600;48.126;11.542;2023-07-08T06:55:08;12.77;;;5.80;;
73382;SDS011;61600;48.126;11.542;2023-07-08T06:57:35;13.55;;;5.47;;
73382;SDS011;61600;48.126;11.542;2023-07-08T07:00:08;10.50;;;5.55;;
73382;SDS011;61600;48.126;11.542;2023-07-08T07:02:35;9.27;;;5.15;;
73382;SDS011;61600;48.126;11.542;2023-07-08T07:05:01;12.35;;;5.97;;
73382;SDS011;61600;48.126;11.542;2023-07-08T07:07:28;10.63;;;5.55;;
73382;SDS011;61600;48.126;11.542;2023-07-08T07:09:54;9.98;;;5.15;;
73382;SDS011;61600;48.126;11.542;2023-07-08T07:12:20;10.38;;;5.63;;
73382;SDS011;61600;48.126;11.542;2023-07-08T07:14:46;11.45;;;5.40;;
73382;SDS011;61600;48.126;11.542;2023-07-08T07:17:12;11.82;;;5.55;;
73382;SDS011;61600;48.126;11.542;2023-07-08T07:19:37;12.02;;;5.57;;
73382;SDS011;61600;48.126;11.542;2023-07-08T07:22:03;8.13;;;4.97;;
73382;SDS011;61600;48.126;11.542;2023-07-08T07:24:29;10.20;;;5.07;;
73382;SDS011;61600;48.126;11.542;2023-07-08T07:26:55;10.95;;;5.30;;
73382;SDS011;61600;48.126;11.542;2023-07-08T07:29:21;10.30;;;5.28;;
73382;SDS011;61600;48.126;11.542;2023-07-08T07:31:48;9.68;;;5.50;;
73382;SDS011;61600;48.126;11.542;2023-07-08T07:34:15;13.45;;;6.40;;
73382;SDS011;61600;48.126;11.542;2023-07-08T07:36:40;8.90;;;5.07;;
73382;SDS011;61600;48.126;11.542;2023-07-08T07:39:06;9.50;;;5.47;;
73382;SDS011;61600;48.126;11.542;2023-07-08T07:41:32;13.18;;;5.95;;
73382;SDS011;61600;48.126;11.542;2023-07-08T07:43:58;11.55;;;5.53;;
73382;SDS011;61600;48.126;11.542;2023-07-08T07:46:23;12.63;;;5.47;;
73382;SDS011;61600;48.126;11.542;2023-07-08T07:48:49;11.00;;;5.13;;
73382;SDS011;61600;48.126;11.542;2023-07-08T07:51:15;10.75;;;5.40;;
73382;SDS011;61600;48.126;11.542;2023-07-08T07:53:41;10.48;;;5.68;;
73382;SDS011;61600;48.126;11.542;2023-07-08T07:56:07;11.73;;;5.93;;
73382;SDS011;61600;48.126;11.542;2023-07-08T07:58:33;13.32;;;5.70;;
73382;SDS011;61600;48.126;11.542;2023-07-08T08:00:59;11.50;;;5.55;;
73382;SDS011;61600;48.126;11.542;2023-07-08T08:03:24;10.85;;;5.43;;
73382;SDS011;61600;48.126;11.542;2023-07-08T08:05:50;11.95;;;5.68;;
73382;SDS011;61600;48.126;11.542;2023-07-08T08:08:16;10.68;;;5.90;;
73382;SDS011;61600;48.126;11.542;2023-07-08T08:10:43;11.20;;;5.50;;
73382;SDS011;61600;48.126;11.542;2023-07-08T08:15:35;10.90;;;5.13;;
73382;SDS011;61600;48.126;11.542;2023-07-08T08:18:01;12.85;;;6.20;;
73382;SDS011;61600;48.126;11.542;2023-07-08T08:20:27;11.80;;;5.95;;
73382;SDS011;61600;48.126;11.542;2023-07-08T08:22:54;12.32;;;5.78;;
73382;SDS011;61600;48.126;11.542;2023-07-08T08:25:20;12.35;;;6.43;;
73382;SDS011;61600;48.126;11.542;2023-07-08T08:27:50;10.52;;;5.22;;
73382;SDS011;61600;48.126;11.542;2023-07-08T08:30:17;11.07;;;5.32;;
73382;SDS011;61600;48.126;11.542;2023-07-08T08:32:43;10.00;;;5.57;;
73382;SDS011;61600;48.126;11.542;2023-07-08T08:35:09;9.45;;;5.47;;
73382;SDS011;61600;48.126;11.542;2023-07-08T08:37:34;11.57;;;5.80;;
73382;SDS011;61600;48.126;11.542;2023-07-08T08:40:00;11.55;;;5.07;;
73382;SDS011;61600;48.126;11.542;2023-07-08T08:42:34;13.15;;;6.30;;
73382;SDS011;61600;48.126;11.542;2023-07-08T08:45:05;13.07;;;6.30;;
73382;SDS011;61600;48.126;11.542;2023-07-08T08:47:37;10.70;;;5.72;;
73382;SDS011;61600;48.126;11.542;2023-07-08T08:50:12;11.27;;;5.57;;
73382;SDS011;61600;48.126;11.542;2023-07-08T08:52:44;13.80;;;6.00;;
73382;SDS011;61600;48.126;11.542;2023-07-08T08:55:11;10.25;;;5.07;;
73382;SDS011;61600;48.126;11.542;2023-07-08T09:00:42;10.48;;;6.32;;
73382;SDS011;61600;48.126;11.542;2023-07-08T09:03:19;12.15;;;5.63;;
73382;SDS011;61600;48.126;11.542;2023-07-08T09:05:52;10.15;;;4.70;;
73382;SDS011;61600;48.126;11.542;2023-07-08T09:08:34;9.80;;;5.38;;
73382;SDS011;61600;48.126;11.542;2023-07-08T09:13:52;8.35;;;5.13;;
73382;SDS011;61600;48.126;11.542;2023-07-08T09:16:26;8.45;;;4.82;;
73382;SDS011;61600;48.126;11.542;2023-07-08T09:19:13;12.55;;;5.15;;
73382;SDS011;61600;48.126;11.542;2023-07-08T09:24:29;10.57;;;5.07;;
73382;SDS011;61600;48.126;11.542;2023-07-08T09:27:02;9.77;;;5.30;;
73382;SDS011;61600;48.126;11.542;2023-07-08T09:29:28;10.85;;;5.25;;
73382;SDS011;61600;48.126;11.542;2023-07-08T09:31:55;10.25;;;5.30;;
73382;SDS011;61600;48.126;11.542;2023-07-08T09:34:22;12.07;;;6.10;;
73382;SDS011;61600;48.126;11.542;2023-07-08T09:37:00;9.85;;;5.57;;
73382;SDS011;61600;48.126;11.542;2023-07-08T09:39:26;9.82;;;5.40;;
73382;SDS011;61600;48.126;11.542;2023-07-08T09:41:55;11.75;;;5.10;;
73382;SDS011;61600;48.126;11.542;2023-07-08T09:44:22;9.40;;;5.13;;
73382;SDS011;61600;48.126;11.542;2023-07-08T09:46:52;10.40;;;5.15;;
73382;SDS011;61600;48.126;11.542;2023-07-08T09:49:20;10.48;;;4.88;;
73382;SDS011;61600;48.126;11.542;2023-07-08T09:51:52;10.07;;;5.15;;
73382;SDS011;61600;48.126;11.542;2023-07-08T09:54:18;10.65;;;5.20;;
73382;SDS011;61600;48.126;11.542;2023-07-08T09:56:49;8.82;;;5.28;;
73382;SDS011;61600;48.126;11.542;2023-07-08T09:59:31;9.30;;;4.85;;
73382;SDS011;61600;48.126;11.542;2023-07-08T10:02:01;9.02;;;4.85;;
73382;SDS011;61600;48.126;11.542;2023-07-08T10:04:29;10.15;;;5.10;;
73382;SDS011;61600;48.126;11.542;2023-07-08T10:06:55;10.35;;;5.18;;
73382;SDS011;61600;48.126;11.542;2023-07-08T10:09:24;9.88;;;4.95;;
73382;SDS011;61600;48.126;11.542;2023-07-08T10:11:54;9.73;;;5.18;;
73382;SDS011;61600;48.126;11.542;2023-07-08T10:14:26;8.18;;;4.15;;
73382;SDS011;61600;48.126;11.542;2023-07-08T10:16:57;6.80;;;4.38;;
73382;SDS011;61600;48.126;11.542;2023-07-08T10:19:23;7.75;;;4.40;;
73382;SDS011;61600;48.126;11.542;2023-07-08T10:24:34;10.32;;;4.30;;
73382;SDS011;61600;48.126;11.542;2023-07-08T10:30:14;8.30;;;4.72;;
73382;SDS011;61600;48.126;11.542;2023-07-08T10:41:28;6.65;;;3.95;;
73382;SDS011;61600;48.126;11.542;2023-07-08T10:44:07;7.25;;;3.90;;
73382;SDS011;61600;48.126;11.542;2023-07-08T11:01:39;9.15;;;4.25;;
73382;SDS011;61600;48.126;11.542;2023-07-08T11:10:06;7.70;;;3.63;;
73382;SDS011;61600;48.126;11.542;2023-07-08T11:17:49;9.73;;;4.20;;
73382;SDS011;61600;48.126;11.542;2023-07-08T11:23:03;6.35;;;4.13;;
73382;SDS011;61600;48.126;11.542;2023-07-08T11:25:34;7.22;;;4.35;;
73382;SDS011;61600;48.126;11.542;2023-07-08T11:28:02;8.60;;;4.30;;
73382;SDS011;61600;48.126;11.542;2023-07-08T11:30:31;8.15;;;4.10;;
73382;SDS011;61600;48.126;11.542;2023-07-08T11:33:02;8.63;;;4.90;;
73382;SDS011;61600;48.126;11.542;2023-07-08T11:35:44;7.15;;;4.15;;
73382;SDS011;61600;48.126;11.542;2023-07-08T11:38:14;10.55;;;4.78;;
73382;SDS011;61600;48.126;11.542;2023-07-08T11:40:58;7.53;;;4.57;;
73382;SDS011;61600;48.126;11.542;2023-07-08T11:43:33;7.15;;;4.35;;
73382;SDS011;61600;48.126;11.542;2023-07-08T11:46:05;10.38;;;5.25;;
73382;SDS011;61600;48.126;11.542;2023-07-08T11:48:39;8.55;;;4.38;;
73382;SDS011;61600;48.126;11.542;2023-07-08T11:51:14;6.38;;;3.92;;
73382;SDS011;61600;48.126;11.542;2023-07-08T11:53:46;9.13;;;4.70;;
73382;SDS011;61600;48.126;11.542;2023-07-08T12:01:19;7.97;;;4.35;;
73382;SDS011;61600;48.126;11.542;2023-07-08T12:03:55;6.45;;;4.20;;
73382;SDS011;61600;48.126;11.542;2023-07-08T12:08:58;7.40;;;4.40;;
73382;SDS011;61600;48.126;11.542;2023-07-08T12:11:32;7.13;;;4.07;;
73382;SDS011;61600;48.126;11.542;2023-07-08T12:13:59;7.70;;;4.50;;
73382;SDS011;61600;48.126;11.542;2023-07-08T12:16:28;7.40;;;4.32;;
73382;SDS011;61600;48.126;11.542;2023-07-08T12:18:56;9.80;;;4.75;;
73382;SDS011;61600;48.126;11.542;2023-07-08T12:21:27;7.82;;;4.55;;
73382;SDS011;61600;48.126;11.542;2023-07-08T12:23:53;8.60;;;4.68;;
73382;SDS011;61600;48.126;11.542;2023-07-08T12:28:45;9.65;;;4.80;;
73382;SDS011;61600;48.126;11.542;2023-07-08T12:33:46;7.20;;;4.78;;
73382;SDS011;61600;48.126;11.542;2023-07-08T12:36:14;7.38;;;4.45;;
73382;SDS011;61600;48.126;11.542;2023-07-08T12:38:51;8.30;;;3.95;;
73382;SDS011;61600;48.126;11.542;2023-07-08T12:41:24;9.82;;;4.38;;
73382;SDS011;61600;48.126;11.542;2023-07-08T12:43:52;7.38;;;4.25;;
73382;SDS011;61600;48.126;11.542;2023-07-08T12:46:19;7.93;;;4.60;;
73382;SDS011;61600;48.126;11.542;2023-07-08T12:48:46;8.35;;;4.25;;
73382;SDS011;61600;48.126;11.542;2023-07-08T12:51:17;7.97;;;4.53;;
73382;SDS011;61600;48.126;11.542;2023-07-08T12:53:47;7.03;;;4.32;;
73382;SDS011;61600;48.126;11.542;2023-07-08T12:56:13;7.78;;;4.30;;
73382;SDS011;61600;48.126;11.542;2023-07-08T12:58:41;8.13;;;4.32;;
73382;SDS011;61600;48.126;11.542;2023-07-08T13:01:13;7.00;;;3.92;;
73382;SDS011;61600;48.126;11.542;2023-07-08T13:03:46;9.88;;;4.50;;
73382;SDS011;61600;48.126;11.542;2023-07-08T13:06:16;7.80;;;4.45;;
73382;SDS011;61600;48.126;11.542;2023-07-08T13:08:45;6.95;;;4.07;;
73382;SDS011;61600;48.126;11.542;2023-07-08T13:11:13;6.45;;;4.20;;
73382;SDS011;61600;48.126;11.542;2023-07-08T13:13:44;9.27;;;4.30;;
73382;SDS011;61600;48.126;11.542;2023-07-08T13:16:15;6.43;;;4.03;;
73382;SDS011;61600;48.126;11.542;2023-07-08T13:18:42;7.68;;;3.85;;
73382;SDS011;61600;48.126;11.542;2023-07-08T13:21:09;10.40;;;4.20;;
73382;SDS011;61600;48.126;11.542;2023-07-08T13:23:37;8.18;;;4.15;;
73382;SDS011;61600;48.126;11.542;2023-07-08T13:26:14;7.50;;;3.90;;
73382;SDS011;61600;48.126;11.542;2023-07-08T13:28:46;8.07;;;4.25;;
73382;SDS011;61600;48.126;11.542;2023-07-08T13:31:19;7.38;;;4.35;;
73382;SDS011;61600;48.126;11.542;2023-07-08T13:33:47;5.82;;;3.63;;
73382;SDS011;61600;48.126;11.542;2023-07-08T13:36:16;7.90;;;3.88;;
73382;SDS011;61600;48.126;11.542;2023-07-08T13:38:44;8.02;;;4.22;;
73382;SDS011;61600;48.126;11.542;2023-07-08T13:41:13;8.68;;;4.10;;
73382;SDS011;61600;48.126;11.542;2023-07-08T13:43:45;7.18;;;4.10;;
73382;SDS011;61600;48.126;11.542;2023-07-08T13:48:56;7.82;;;4.07;;
73382;SDS011;61600;48.126;11.542;2023-07-08T13:51:29;6.15;;;3.83;;
73382;SDS011;61600;48.126;11.542;2023-07-08T13:53:58;6.70;;;3.92;;
73382;SDS011;61600;48.126;11.542;2023-07-08T13:56:28;6.10;;;3.90;;
73382;SDS011;61600;48.126;11.542;2023-07-08T13:59:01;9.05;;;3.63;;
73382;SDS011;61600;48.126;11.542;2023-07-08T14:01:30;6.93;;;4.07;;
73382;SDS011;61600;48.126;11.542;2023-07-08T14:03:57;7.82;;;3.78;;
73382;SDS011;61600;48.126;11.542;2023-07-08T14:06:29;5.80;;;3.15;;
73382;SDS011;61600;48.126;11.542;2023-07-08T14:09:18;5.80;;;3.50;;
73382;SDS011;61600;48.126;11.542;2023-07-08T14:11:46;7.10;;;3.70;;
73382;SDS011;61600;48.126;11.542;2023-07-08T14:14:13;6.95;;;3.60;;
73382;SDS011;61600;48.126;11.542;2023-07-08T14:16:40;5.07;;;3.00;;
73382;SDS011;61600;48.126;11.542;2023-07-08T14:19:16;5.38;;;2.83;;
73382;SDS011;61600;48.126;11.542;2023-07-08T14:21:57;5.45;;;3.10;;
73382;SDS011;61600;48.126;11.542;2023-07-08T14:24:24;5.95;;;3.30;;
73382;SDS011;61600;48.126;11.542;2023-07-08T14:26:51;6.40;;;3.42;;
73382;SDS011;61600;48.126;11.542;2023-07-08T14:29:18;6.63;;;3.28;;
73382;SDS011;61600;48.126;11.542;2023-07-08T14:31:44;5.55;;;3.42;;
73382;SDS011;61600;48.126;11.542;2023-07-08T14:34:13;6.15;;;3.08;;
73382;SDS011;61600;48.126;11.542;2023-07-08T14:36:46;8.07;;;3.72;;
73382;SDS011;61600;48.126;11.542;2023-07-08T14:39:13;7.60;;;3.25;;
73382;SDS011;61600;48.126;11.542;2023-07-08T14:41:41;6.03;;;3.30;;
73382;SDS011;61600;48.126;11.542;2023-07-08T14:46:52;8.02;;;3.95;;
73382;SDS011;61600;48.126;11.542;2023-07-08T14:49:19;7.30;;;3.55;;
73382;SDS011;61600;48.126;11.542;2023-07-08T14:51:46;6.38;;;3.45;;
73382;SDS011;61600;48.126;11.542;2023-07-08T14:54:12;7.57;;;3.55;;
73382;SDS011;61600;48.126;11.542;2023-07-08T14:56:39;6.93;;;3.63;;
73382;SDS011;61600;48.126;11.542;2023-07-08T14:59:06;7.35;;;3.35;;
73382;SDS011;61600;48.126;11.542;2023-07-08T15:01:39;8.02;;;3.63;;
73382;SDS011;61600;48.126;11.542;2023-07-08T15:04:12;8.60;;;3.80;;
73382;SDS011;61600;48.126;11.542;2023-07-08T15:06:43;7.80;;;3.53;;
73382;SDS011;61600;48.126;11.542;2023-07-08T15:09:10;7.68;;;3.90;;
73382;SDS011;61600;48.126;11.542;2023-07-08T15:11:37;6.10;;;3.50;;
73382;SDS011;61600;48.126;11.542;2023-07-08T15:14:05;6.38;;;3.92;;
73382;SDS011;61600;48.126;11.542;2023-07-08T15:16:37;6.63;;;3.70;;
73382;SDS011;61600;48.126;11.542;2023-07-08T15:19:08;11.07;;;4.15;;
73382;SDS011;61600;48.126;11.542;2023-07-08T15:21:46;6.70;;;3.63;;
73382;SDS011;61600;48.126;11.542;2023-07-08T15:24:12;6.82;;;4.20;;
73382;SDS011;61600;48.126;11.542;2023-07-08T15:26:39;6.72;;;3.60;;
73382;SDS011;61600;48.126;11.542;2023-07-08T15:29:14;6.38;;;3.88;;
73382;SDS011;61600;48.126;11.542;2023-07-08T15:31:44;9.18;;;3.80;;
73382;SDS011;61600;48.126;11.542;2023-07-08T15:34:14;7.32;;;3.40;;
73382;SDS011;61600;48.126;11.542;2023-07-08T15:36:41;8.57;;;3.80;;
73382;SDS011;61600;48.126;11.542;2023-07-08T15:39:07;7.05;;;3.80;;
73382;SDS011;61600;48.126;11.542;2023-07-08T15:41:34;7.43;;;3.53;;
73382;SDS011;61600;48.126;11.542;2023-07-08T15:44:00;7.32;;;3.67;;
73382;SDS011;61600;48.126;11.542;2023-07-08T15:46:34;6.85;;;3.58;;
73382;SDS011;61600;48.126;11.542;2023-07-08T15:49:09;6.57;;;3.78;;
73382;SDS011;61600;48.126;11.542;2023-07-08T15:51:53;7.03;;;3.80;;
73382;SDS011;61600;48.126;11.542;2023-07-08T15:54:19;7.68;;;3.30;;
73382;SDS011;61600;48.126;11.542;2023-07-08T15:56:46;5.95;;;3.40;;
73382;SDS011;61600;48.126;11.542;2023-07-08T15:59:14;5.78;;;3.70;;
73382;SDS011;61600;48.126;11.542;2023-07-08T16:01:43;8.35;;;3.78;;
73382;SDS011;61600;48.126;11.542;2023-07-08T16:04:20;7.78;;;3.90;;
73382;SDS011;61600;48.126;11.542;2023-07-08T16:06:49;6.05;;;3.88;;